createdAt,value
2023-03-24T00:01:15.980Z,9.60
2023-03-24T00:03:45.768Z,9.60
2023-03-24T00:06:13.803Z,9.50
2023-03-24T00:08:41.483Z,9.50
2023-03-24T00:11:08.130Z,9.50
2023-03-24T00:13:38.181Z,9.50
2023-03-24T00:16:06.298Z,9.50
2023-03-24T00:18:33.010Z,9.50
2023-03-24T00:21:00.387Z,9.40
2023-03-24T00:23:27.035Z,9.40
2023-03-24T00:25:54.657Z,9.40
2023-03-24T00:28:21.287Z,9.40
2023-03-24T00:30:53.284Z,9.40
2023-03-24T00:33:20.284Z,9.40
2023-03-24T00:35:48.462Z,9.40
2023-03-24T00:38:15.171Z,9.40
2023-03-24T00:40:44.743Z,9.40
2023-03-24T00:43:13.386Z,9.40
2023-03-24T00:45:46.233Z,9.40
2023-03-24T00:48:12.897Z,9.40
2023-03-24T00:50:39.514Z,9.40
2023-03-24T00:53:06.141Z,9.40
2023-03-24T00:55:34.010Z,9.30
2023-03-24T00:58:01.148Z,9.30
2023-03-24T01:00:27.810Z,9.30
2023-03-24T01:02:54.604Z,9.30
2023-03-24T01:05:21.343Z,9.20
2023-03-24T01:10:53.397Z,9.20
2023-03-24T01:13:20.226Z,9.20
2023-03-24T01:16:05.718Z,9.10
2023-03-24T01:18:32.384Z,9.10
2023-03-24T01:20:59.001Z,9.10
2023-03-24T01:23:25.993Z,9.10
2023-03-24T01:25:52.864Z,9.10
2023-03-24T01:28:21.679Z,9.20
2023-03-24T01:30:48.268Z,9.20
2023-03-24T01:33:14.926Z,9.30
2023-03-24T01:35:43.646Z,9.30
2023-03-24T01:38:10.464Z,9.40
2023-03-24T01:40:37.274Z,9.40
2023-03-24T01:43:03.939Z,9.40
2023-03-24T01:45:30.913Z,9.40
2023-03-24T01:47:57.749Z,9.40
2023-03-24T01:50:24.420Z,9.30
2023-03-24T01:52:51.318Z,9.30
2023-03-24T01:55:19.711Z,9.30
2023-03-24T01:57:49.515Z,9.30
2023-03-24T02:00:16.825Z,9.20
2023-03-24T02:03:03.509Z,9.20
2023-03-24T02:05:34.881Z,9.10
2023-03-24T02:08:02.189Z,9.10
2023-03-24T02:10:28.977Z,9.00
2023-03-24T02:12:55.573Z,9.00
2023-03-24T02:15:22.194Z,9.00
2023-03-24T02:17:50.056Z,8.90
2023-03-24T02:20:17.038Z,8.90
2023-03-24T02:22:43.824Z,8.90
2023-03-24T02:25:10.624Z,8.90
2023-03-24T02:27:42.170Z,8.90
2023-03-24T02:30:09.496Z,8.90
2023-03-24T02:32:36.207Z,8.80
2023-03-24T02:35:02.955Z,8.80
2023-03-24T02:37:48.876Z,8.80
2023-03-24T02:40:17.212Z,8.80
2023-03-24T02:42:44.245Z,8.80
2023-03-24T02:45:11.632Z,8.80
2023-03-24T02:47:38.620Z,8.70
2023-03-24T02:50:06.070Z,8.70
2023-03-24T02:52:33.076Z,8.70
2023-03-24T02:55:00.380Z,8.70
2023-03-24T02:57:46.231Z,8.60
2023-03-24T03:00:32.449Z,8.60
2023-03-24T03:03:05.193Z,8.60
2023-03-24T03:05:32.573Z,8.60
2023-03-24T03:07:59.255Z,8.50
2023-03-24T03:10:26.320Z,8.50
2023-03-24T03:12:52.932Z,8.60
2023-03-24T03:15:19.549Z,8.50
2023-03-24T03:17:48.237Z,8.50
2023-03-24T03:20:17.615Z,8.40
2023-03-24T03:22:44.692Z,8.50
2023-03-24T03:25:11.914Z,8.50
2023-03-24T03:27:57.634Z,8.50
2023-03-24T03:30:24.309Z,8.50
2023-03-24T03:32:54.582Z,8.50
2023-03-24T03:35:22.589Z,8.40
2023-03-24T03:38:09.498Z,8.40
2023-03-24T03:40:36.186Z,8.40
2023-03-24T03:43:11.965Z,8.30
2023-03-24T03:45:38.784Z,8.30
2023-03-24T03:48:05.925Z,8.30
2023-03-24T03:50:32.648Z,8.30
2023-03-24T03:53:04.644Z,8.30
2023-03-24T03:55:32.281Z,8.30
2023-03-24T03:57:58.988Z,8.30
2023-03-24T04:00:33.473Z,8.30
2023-03-24T04:03:18.341Z,8.30
2023-03-24T04:06:04.983Z,8.30
2023-03-24T04:08:31.738Z,8.30
2023-03-24T04:11:13.391Z,8.30
2023-03-24T04:14:08.803Z,8.30
2023-03-24T04:17:06.415Z,8.30
2023-03-24T04:19:39.082Z,8.30
2023-03-24T04:22:05.909Z,8.30
2023-03-24T04:24:34.815Z,8.30
2023-03-24T04:30:07.375Z,8.30
2023-03-24T04:32:34.859Z,8.30
2023-03-24T04:35:01.882Z,8.30
2023-03-24T04:37:47.441Z,8.30
2023-03-24T04:40:21.064Z,8.20
2023-03-24T04:42:47.735Z,8.30
2023-03-24T04:45:15.075Z,8.30
2023-03-24T04:48:00.191Z,8.30
2023-03-24T04:50:38.477Z,8.30
2023-03-24T04:53:09.664Z,8.30
2023-03-24T04:55:58.351Z,8.30
2023-03-24T04:58:49.611Z,8.30
2023-03-24T05:01:17.112Z,8.20
2023-03-24T05:03:53.188Z,8.20
2023-03-24T05:06:20.372Z,8.20
2023-03-24T05:08:47.633Z,8.20
2023-03-24T05:11:14.410Z,8.20
2023-03-24T05:13:48.525Z,8.20
2023-03-24T05:16:16.202Z,8.20
2023-03-24T05:18:51.562Z,8.20
2023-03-24T05:21:20.521Z,8.20
2023-03-24T05:23:47.225Z,8.20
2023-03-24T05:26:33.397Z,8.20
2023-03-24T05:29:18.466Z,8.20
2023-03-24T05:31:45.495Z,8.10
2023-03-24T05:34:17.124Z,8.10
2023-03-24T05:36:53.321Z,8.20
2023-03-24T05:39:21.544Z,8.10
2023-03-24T05:42:03.545Z,8.10
2023-03-24T05:44:30.925Z,8.20
2023-03-24T05:47:04.482Z,8.10
2023-03-24T05:49:31.724Z,8.10
2023-03-24T05:52:00.247Z,8.10
2023-03-24T05:54:27.251Z,8.10
2023-03-24T05:57:08.087Z,8.10
2023-03-24T05:59:46.097Z,8.10
2023-03-24T06:02:35.887Z,8.10
2023-03-24T06:05:08.354Z,8.10
2023-03-24T06:07:38.269Z,8.10
2023-03-24T06:10:07.558Z,8.10
2023-03-24T06:12:42.637Z,8.10
2023-03-24T06:15:09.250Z,8.10
2023-03-24T06:17:37.511Z,8.10
2023-03-24T06:20:16.142Z,8.10
2023-03-24T06:22:50.946Z,8.10
2023-03-24T06:25:27.185Z,8.10
2023-03-24T06:28:06.000Z,8.10
2023-03-24T06:30:33.708Z,8.10
2023-03-24T06:33:00.917Z,8.10
2023-03-24T06:35:28.173Z,8.20
2023-03-24T06:38:07.813Z,8.30
2023-03-24T06:40:35.021Z,8.30
2023-03-24T06:43:01.615Z,8.30
2023-03-24T06:45:31.165Z,8.30
2023-03-24T06:47:58.264Z,8.40
2023-03-24T06:50:26.961Z,8.40
2023-03-24T06:52:54.920Z,8.50
2023-03-24T06:55:22.644Z,8.50
2023-03-24T06:58:11.336Z,8.60
2023-03-24T07:00:46.830Z,8.60
2023-03-24T07:03:31.809Z,8.70
2023-03-24T07:06:26.019Z,8.80
2023-03-24T07:08:55.700Z,8.90
2023-03-24T07:11:25.223Z,8.90
2023-03-24T07:13:54.906Z,9.00
2023-03-24T07:16:23.865Z,9.10
2023-03-24T07:19:01.262Z,9.10
2023-03-24T07:21:31.847Z,9.20
2023-03-24T07:23:58.616Z,9.30
2023-03-24T07:26:33.305Z,9.30
2023-03-24T07:29:11.872Z,9.40
2023-03-24T07:32:01.020Z,9.50
2023-03-24T07:34:27.834Z,9.60
2023-03-24T07:37:15.306Z,9.70
2023-03-24T07:39:41.951Z,9.80
2023-03-24T07:42:11.682Z,9.90
2023-03-24T07:44:53.437Z,9.90
2023-03-24T07:47:20.756Z,10.00
2023-03-24T07:49:48.036Z,10.10
2023-03-24T07:52:14.680Z,10.10
2023-03-24T07:54:44.267Z,10.20
2023-03-24T07:57:23.734Z,10.30
2023-03-24T07:59:50.611Z,10.40
2023-03-24T08:02:40.023Z,10.50
2023-03-24T08:05:38.503Z,10.60
2023-03-24T08:08:29.446Z,10.60
2023-03-24T08:10:56.272Z,10.70
2023-03-24T08:13:22.986Z,10.80
2023-03-24T08:15:49.974Z,10.90
2023-03-24T08:18:16.749Z,10.90
2023-03-24T08:20:43.951Z,11.00
2023-03-24T08:23:11.143Z,11.10
2023-03-24T08:25:39.969Z,11.20
2023-03-24T08:28:06.769Z,11.20
2023-03-24T08:30:36.472Z,11.30
2023-03-24T08:33:03.444Z,11.30
2023-03-24T08:35:30.173Z,11.40
2023-03-24T08:37:59.379Z,11.50
2023-03-24T08:40:26.092Z,11.50
2023-03-24T08:42:52.717Z,11.60
2023-03-24T08:45:21.211Z,11.60
2023-03-24T08:47:49.321Z,11.60
2023-03-24T08:50:18.221Z,11.60
2023-03-24T08:52:49.551Z,11.60
2023-03-24T08:55:21.222Z,11.70
2023-03-24T08:57:49.050Z,11.80
2023-03-24T09:00:15.836Z,11.90
2023-03-24T09:02:42.600Z,12.00
2023-03-24T09:05:09.385Z,12.10
2023-03-24T09:07:55.866Z,12.20
2023-03-24T09:10:22.643Z,12.30
2023-03-24T09:12:49.249Z,12.50
2023-03-24T09:15:15.998Z,12.70
2023-03-24T09:17:44.927Z,12.70
2023-03-24T09:20:11.975Z,12.60
2023-03-24T09:22:38.632Z,12.60
2023-03-24T09:25:05.311Z,12.60
2023-03-24T09:27:33.166Z,12.50
2023-03-24T09:29:59.800Z,12.30
2023-03-24T09:32:26.531Z,12.30
2023-03-24T09:34:53.175Z,12.40
2023-03-24T09:37:39.850Z,12.60
2023-03-24T09:40:07.856Z,12.90
2023-03-24T09:42:34.535Z,13.10
2023-03-24T09:45:01.199Z,13.10
2023-03-24T09:47:47.879Z,13.20
2023-03-24T09:50:14.536Z,13.40
2023-03-24T09:52:41.162Z,13.50
2023-03-24T09:55:10.764Z,13.50
2023-03-24T09:57:37.870Z,13.50
2023-03-24T10:00:07.117Z,13.60
2023-03-24T10:02:39.004Z,14.20
2023-03-24T10:05:05.688Z,14.70
2023-03-24T10:07:35.459Z,14.40
2023-03-24T10:10:02.197Z,14.10
2023-03-24T10:12:28.803Z,14.00
2023-03-24T10:14:55.562Z,14.10
2023-03-24T10:17:22.284Z,14.20
2023-03-24T10:19:48.946Z,14.40
2023-03-24T10:22:15.566Z,14.20
2023-03-24T10:24:44.597Z,14.30
2023-03-24T10:27:13.417Z,14.40
2023-03-24T10:29:40.214Z,14.60
2023-03-24T10:32:06.936Z,14.60
2023-03-24T10:34:33.942Z,14.30
2023-03-24T10:37:05.150Z,13.90
2023-03-24T10:39:41.965Z,14.10
2023-03-24T10:42:11.700Z,14.50
2023-03-24T10:44:40.007Z,14.90
2023-03-24T10:49:58.313Z,14.50
2023-03-24T10:52:25.284Z,14.90
2023-03-24T10:54:52.357Z,15.40
2023-03-24T10:57:46.057Z,15.80
2023-03-24T11:00:21.510Z,16.00
2023-03-24T11:03:08.933Z,16.20
2023-03-24T11:08:44.743Z,16.30
2023-03-24T11:11:11.443Z,16.20
2023-03-24T11:13:57.892Z,16.10
2023-03-24T11:16:32.088Z,16.50
2023-03-24T11:18:58.985Z,16.60
2023-03-24T11:21:26.340Z,16.70
2023-03-24T11:23:53.237Z,16.70
2023-03-24T11:26:22.763Z,16.80
2023-03-24T11:28:49.465Z,16.80
2023-03-24T11:31:19.275Z,16.80
2023-03-24T11:33:46.625Z,16.80
2023-03-24T11:36:15.514Z,17.20
2023-03-24T11:38:42.242Z,17.50
2023-03-24T11:41:09.610Z,17.70
2023-03-24T11:43:36.286Z,17.30
2023-03-24T11:46:02.931Z,17.20
2023-03-24T11:48:29.601Z,17.40
2023-03-24T11:50:56.250Z,17.30
2023-03-24T11:53:23.177Z,17.50
2023-03-24T11:58:54.011Z,17.30
2023-03-24T12:01:41.088Z,17.80
2023-03-24T12:04:08.103Z,17.80
2023-03-24T12:06:36.530Z,18.30
2023-03-24T12:09:04.263Z,18.00
2023-03-24T12:11:31.074Z,17.30
2023-03-24T12:13:57.742Z,17.40
2023-03-24T12:16:24.676Z,17.10
2023-03-24T12:18:51.833Z,16.80
2023-03-24T12:21:18.543Z,16.50
2023-03-24T12:23:45.673Z,15.90
2023-03-24T12:26:15.506Z,15.40
2023-03-24T12:28:44.576Z,15.30
2023-03-24T12:31:11.890Z,15.00
2023-03-24T12:33:38.604Z,15.40
2023-03-24T12:36:27.001Z,16.00
2023-03-24T12:38:54.000Z,16.70
2023-03-24T12:41:21.785Z,17.20
2023-03-24T12:43:49.845Z,17.20
2023-03-24T12:46:16.458Z,17.10
2023-03-24T12:48:43.152Z,17.40
2023-03-24T12:51:09.768Z,16.70
2023-03-24T12:53:36.931Z,16.90
2023-03-24T12:56:03.629Z,17.10
2023-03-24T12:58:30.234Z,16.60
2023-03-24T13:00:57.029Z,16.80
2023-03-24T13:03:23.735Z,17.40
2023-03-24T13:06:16.821Z,17.80
2023-03-24T13:08:45.185Z,17.20
2023-03-24T13:11:16.884Z,16.40
2023-03-24T13:13:53.597Z,16.50
2023-03-24T13:16:21.494Z,16.80
2023-03-24T13:18:48.350Z,17.30
2023-03-24T13:21:15.053Z,17.10
2023-03-24T13:23:41.879Z,17.00
2023-03-24T13:26:09.699Z,16.80
2023-03-24T13:28:36.492Z,16.90
2023-03-24T13:31:03.076Z,17.10
2023-03-24T13:33:29.832Z,17.40
2023-03-24T13:35:58.691Z,17.80
2023-03-24T13:38:25.420Z,17.70
2023-03-24T13:40:52.062Z,18.10
2023-03-24T13:43:18.886Z,17.90
2023-03-24T13:45:47.895Z,17.50
2023-03-24T13:48:14.987Z,17.40
2023-03-24T13:50:41.616Z,17.80
2023-03-24T13:53:08.311Z,17.90
2023-03-24T13:55:34.978Z,17.70
2023-03-24T13:58:01.781Z,17.40
2023-03-24T14:00:28.483Z,17.60
2023-03-24T14:02:55.503Z,17.50
2023-03-24T14:05:22.199Z,17.50
2023-03-24T14:07:51.477Z,17.30
2023-03-24T14:10:20.576Z,17.50
2023-03-24T14:12:47.296Z,17.60
2023-03-24T14:15:14.184Z,17.50
2023-03-24T14:18:00.871Z,17.50
2023-03-24T14:20:28.255Z,17.70
2023-03-24T14:22:54.921Z,17.20
2023-03-24T14:25:21.530Z,16.80
2023-03-24T14:28:08.426Z,16.90
2023-03-24T14:30:38.105Z,17.10
2023-03-24T14:33:04.885Z,16.80
2023-03-24T14:35:32.170Z,16.80
2023-03-24T14:37:59.906Z,16.80
2023-03-24T14:40:29.507Z,17.00
2023-03-24T14:42:56.661Z,16.80
2023-03-24T14:45:23.311Z,16.00
2023-03-24T14:47:50.258Z,15.80
2023-03-24T14:50:16.893Z,16.10
2023-03-24T14:52:43.494Z,15.90
2023-03-24T14:55:10.129Z,15.90
2023-03-24T14:57:38.886Z,16.00
2023-03-24T15:00:11.945Z,15.70
2023-03-24T15:02:38.735Z,15.10
2023-03-24T15:05:05.362Z,14.70
2023-03-24T15:07:50.786Z,14.90
2023-03-24T15:10:17.501Z,14.60
2023-03-24T15:12:44.131Z,14.40
2023-03-24T15:15:10.803Z,14.40
2023-03-24T15:17:38.590Z,15.10
2023-03-24T15:20:07.558Z,15.50
2023-03-24T15:22:34.156Z,15.30
2023-03-24T15:25:00.871Z,14.90
2023-03-24T15:27:31.644Z,15.10
2023-03-24T15:29:59.071Z,15.00
2023-03-24T15:32:27.484Z,14.90
2023-03-24T15:34:54.252Z,14.80
2023-03-24T15:37:41.304Z,14.90
2023-03-24T15:40:15.815Z,14.60
2023-03-24T15:42:42.850Z,14.30
2023-03-24T15:45:09.442Z,14.30
2023-03-24T15:47:36.199Z,14.60
2023-03-24T15:50:06.253Z,15.30
2023-03-24T15:52:34.895Z,15.80
2023-03-24T15:55:01.667Z,16.10
2023-03-24T16:00:31.786Z,14.90
2023-03-24T16:02:59.368Z,15.00
2023-03-24T16:05:26.163Z,15.20
2023-03-24T16:08:12.724Z,15.00
2023-03-24T16:10:40.455Z,14.50
2023-03-24T16:13:07.073Z,14.20
2023-03-24T16:15:33.714Z,14.10
2023-03-24T16:18:00.312Z,14.00
2023-03-24T16:20:27.023Z,13.90
2023-03-24T16:22:53.680Z,14.10
2023-03-24T16:25:20.262Z,14.10
2023-03-24T16:27:48.247Z,13.80
2023-03-24T16:30:14.842Z,13.60
2023-03-24T16:32:44.505Z,13.40
2023-03-24T16:35:11.154Z,13.20
2023-03-24T16:37:37.985Z,13.10
2023-03-24T16:40:06.909Z,13.20
2023-03-24T16:42:33.506Z,13.00
2023-03-24T16:45:00.274Z,13.00
2023-03-24T16:47:26.902Z,12.90
2023-03-24T16:49:53.546Z,12.90
2023-03-24T16:52:20.198Z,13.00
2023-03-24T16:54:46.947Z,12.80
2023-03-24T16:57:16.328Z,12.80
2023-03-24T16:59:42.981Z,12.80
2023-03-24T17:02:10.162Z,12.60
2023-03-24T17:04:36.784Z,12.60
2023-03-24T17:07:03.538Z,12.50
2023-03-24T17:09:31.198Z,12.40
2023-03-24T17:11:58.395Z,12.40
2023-03-24T17:14:25.296Z,12.40
2023-03-24T17:16:53.699Z,12.30
2023-03-24T17:19:20.948Z,12.30
2023-03-24T17:21:47.976Z,12.30
2023-03-24T17:24:14.623Z,12.20
2023-03-24T17:26:43.359Z,12.10
2023-03-24T17:29:09.996Z,12.00
2023-03-24T17:31:36.747Z,11.90
2023-03-24T17:34:18.700Z,11.80
2023-03-24T17:39:57.174Z,11.70
2023-03-24T17:42:23.814Z,11.70
2023-03-24T17:44:50.753Z,11.70
2023-03-24T17:47:17.391Z,11.70
2023-03-24T17:49:44.017Z,11.70
2023-03-24T17:52:11.014Z,11.80
2023-03-24T17:54:37.695Z,11.70
2023-03-24T17:57:07.321Z,11.50
2023-03-24T17:59:34.033Z,11.40
2023-03-24T18:02:01.266Z,11.20
2023-03-24T18:04:32.530Z,11.10
2023-03-24T18:07:02.911Z,11.00
2023-03-24T18:09:29.597Z,10.90
2023-03-24T18:11:56.270Z,10.00
2023-03-24T18:14:25.916Z,9.30
2023-03-24T18:16:52.621Z,8.90
2023-03-24T18:19:21.470Z,8.70
2023-03-24T18:21:48.299Z,8.60
2023-03-24T18:24:14.918Z,8.50
2023-03-24T18:26:41.747Z,8.40
2023-03-24T18:29:11.378Z,8.30
2023-03-24T18:31:43.965Z,8.20
2023-03-24T18:34:12.461Z,8.20
2023-03-24T18:36:40.451Z,8.10
2023-03-24T18:39:16.347Z,8.10
2023-03-24T18:41:53.715Z,8.00
2023-03-24T18:44:23.104Z,7.90
2023-03-24T18:46:55.759Z,8.00
2023-03-24T18:49:25.066Z,8.00
2023-03-24T18:51:51.829Z,8.00
2023-03-24T18:54:22.897Z,8.00
2023-03-24T18:57:11.976Z,8.10
2023-03-24T18:59:39.558Z,8.20
2023-03-24T19:02:09.335Z,8.20
2023-03-24T19:05:05.229Z,8.20
2023-03-24T19:07:38.560Z,8.20
2023-03-24T19:10:05.889Z,8.30
2023-03-24T19:12:32.904Z,8.30
2023-03-24T19:15:01.675Z,8.40
2023-03-24T19:17:34.728Z,8.50
2023-03-24T19:20:07.391Z,8.50
2023-03-24T19:22:39.743Z,8.50
2023-03-24T19:25:09.484Z,8.50
2023-03-24T19:27:37.252Z,8.50
2023-03-24T19:30:04.862Z,8.40
2023-03-24T19:32:31.542Z,8.40
2023-03-24T19:34:58.228Z,8.40
2023-03-24T19:37:31.232Z,8.40
2023-03-24T19:39:58.053Z,8.40
2023-03-24T19:42:29.795Z,8.50
2023-03-24T19:44:57.785Z,8.40
2023-03-24T19:47:24.427Z,8.50
2023-03-24T19:49:51.281Z,8.50
2023-03-24T19:52:17.883Z,8.50
2023-03-24T19:54:44.572Z,8.50
2023-03-24T19:57:31.219Z,8.50
2023-03-24T19:59:57.869Z,8.50
2023-03-24T20:02:24.979Z,8.50
2023-03-24T20:04:51.993Z,8.50
2023-03-24T20:07:20.797Z,8.60
2023-03-24T20:09:47.469Z,8.70
2023-03-24T20:12:14.139Z,8.70
2023-03-24T20:14:41.075Z,8.70
2023-03-24T20:17:26.672Z,8.80
2023-03-24T20:19:54.264Z,8.80
2023-03-24T20:22:21.037Z,8.70
2023-03-24T20:24:48.195Z,8.70
2023-03-24T20:27:33.990Z,8.70
2023-03-24T20:30:00.588Z,8.70
2023-03-24T20:32:27.419Z,8.70
2023-03-24T20:34:57.200Z,8.70
2023-03-24T20:37:30.463Z,8.70
2023-03-24T20:39:57.145Z,8.70
2023-03-24T20:42:24.528Z,8.70
2023-03-24T20:44:51.297Z,8.70
2023-03-24T20:47:19.499Z,8.70
2023-03-24T20:49:46.380Z,8.70
2023-03-24T20:52:14.355Z,8.70
2023-03-24T20:54:41.606Z,8.70
2023-03-24T21:00:13.922Z,8.70
2023-03-24T21:02:43.737Z,8.70
2023-03-24T21:05:10.894Z,8.80
2023-03-24T21:07:43.639Z,8.80
2023-03-24T21:10:10.433Z,8.70
2023-03-24T21:12:37.083Z,8.80
2023-03-24T21:15:21.031Z,8.80
2023-03-24T21:17:50.238Z,8.80
2023-03-24T21:20:20.898Z,8.80
2023-03-24T21:22:53.537Z,8.80
2023-03-24T21:25:21.504Z,8.80
2023-03-24T21:28:11.795Z,8.80
2023-03-24T21:30:38.469Z,8.80
2023-03-24T21:33:05.327Z,8.80
2023-03-24T21:35:32.187Z,8.80
2023-03-24T21:41:03.650Z,8.80
2023-03-24T21:43:30.506Z,8.80
2023-03-24T21:45:57.220Z,8.70
2023-03-24T21:48:24.862Z,8.80
2023-03-24T21:50:52.322Z,8.80
2023-03-24T21:53:19.071Z,8.80
2023-03-24T21:56:05.001Z,8.80
2023-03-24T21:58:31.669Z,8.80
2023-03-24T22:00:58.565Z,8.80
2023-03-24T22:03:26.239Z,8.80
2023-03-24T22:05:54.983Z,8.90
2023-03-24T22:08:26.740Z,8.90
2023-03-24T22:10:54.361Z,9.00
2023-03-24T22:13:21.280Z,9.00
2023-03-24T22:15:49.328Z,9.00
2023-03-24T22:18:16.807Z,9.10
2023-03-24T22:20:43.523Z,9.10
2023-03-24T22:23:10.391Z,9.10
2023-03-24T22:25:37.005Z,9.10
2023-03-24T22:28:03.704Z,9.10
2023-03-24T22:30:30.362Z,9.10
2023-03-24T22:32:57.059Z,9.00
2023-03-24T22:35:23.745Z,9.00
2023-03-24T22:38:07.209Z,8.90
2023-03-24T22:40:34.009Z,9.00
2023-03-24T22:43:00.885Z,9.00
2023-03-24T22:45:27.511Z,9.00
2023-03-24T22:47:54.132Z,9.00
2023-03-24T22:50:20.790Z,9.00
2023-03-24T22:52:47.377Z,9.00
2023-03-24T22:55:14.067Z,9.00
2023-03-24T22:57:47.251Z,8.90
2023-03-24T23:00:14.632Z,8.90
2023-03-24T23:02:41.523Z,8.90
2023-03-24T23:05:08.255Z,8.90
2023-03-24T23:07:53.985Z,8.90
2023-03-24T23:10:20.817Z,8.90
2023-03-24T23:12:51.744Z,8.90
2023-03-24T23:15:18.388Z,8.90
2023-03-24T23:20:33.246Z,8.80
2023-03-24T23:23:00.556Z,8.90
2023-03-24T23:25:30.942Z,8.90
2023-03-24T23:28:16.648Z,8.90
2023-03-24T23:30:43.237Z,8.90
2023-03-24T23:33:14.592Z,8.90
2023-03-24T23:36:00.559Z,8.90
2023-03-24T23:38:27.480Z,8.80
2023-03-24T23:40:54.119Z,8.80
2023-03-24T23:43:21.318Z,8.80
2023-03-24T23:45:50.389Z,8.80
2023-03-24T23:48:17.168Z,8.80
2023-03-24T23:50:49.184Z,8.70
2023-03-24T23:53:16.066Z,8.70
2023-03-24T23:55:43.973Z,8.70
2023-03-24T23:58:10.998Z,8.70
